createdAt,value
2023-04-28T00:30:30.587Z,-0.20
2023-04-28T00:32:57.841Z,-0.50
2023-04-28T00:55:09.868Z,-0.60
2023-04-28T01:00:06.732Z,-0.70
2023-04-28T01:02:34.697Z,-0.60
2023-04-28T01:07:30.277Z,-0.70
2023-04-28T01:09:58.076Z,-0.70
2023-04-28T01:12:30.972Z,0.20
2023-04-28T01:14:59.896Z,-0.70
2023-04-28T01:17:27.529Z,-0.80
2023-04-28T01:24:51.829Z,-0.70
2023-04-28T01:29:46.866Z,-0.50
2023-04-28T03:08:31.738Z,-1.60
2023-04-28T05:06:22.447Z,-0.50
2023-04-28T06:21:10.590Z,6.90
2023-04-28T06:38:31.959Z,10.70
2023-04-28T06:40:59.068Z,10.70
2023-04-28T06:43:27.031Z,12.90
2023-04-28T06:46:23.588Z,12.30
2023-04-28T06:53:46.481Z,14.90
2023-04-28T06:56:14.364Z,14.70
2023-04-28T06:58:41.777Z,15.20
2023-04-28T07:01:08.869Z,15.70
2023-04-28T07:11:00.110Z,17.20
2023-04-28T07:13:27.630Z,17.00
2023-04-28T07:15:55.219Z,16.50
2023-04-28T07:18:22.840Z,16.70
2023-04-28T07:20:50.831Z,16.90
2023-04-28T07:25:46.081Z,16.10
2023-04-28T07:28:14.256Z,16.60
2023-04-28T07:30:41.875Z,16.00
2023-04-28T07:33:09.434Z,15.80
2023-04-28T07:35:36.611Z,15.70
2023-04-28T07:38:04.091Z,16.80
2023-04-28T07:47:54.812Z,17.60
2023-04-28T07:55:18.024Z,19.30
2023-04-28T07:57:45.645Z,20.00
2023-04-28T08:00:13.407Z,20.00
2023-04-28T08:02:41.160Z,19.90
2023-04-28T08:05:09.856Z,20.00
2023-04-28T08:07:38.155Z,20.70
2023-04-28T08:10:05.603Z,20.90
2023-04-28T08:22:24.407Z,18.30
2023-04-28T08:24:51.459Z,17.70
2023-04-28T08:27:18.904Z,18.20
2023-04-28T08:29:46.064Z,16.90
2023-04-28T08:37:08.671Z,15.80
2023-04-28T08:42:07.354Z,14.60
2023-04-28T08:44:41.843Z,15.00
2023-04-28T08:47:14.317Z,14.40
2023-04-28T08:49:41.923Z,14.70
2023-04-28T08:52:16.857Z,14.60
2023-04-28T08:54:44.657Z,14.40
2023-04-28T08:57:12.168Z,14.60
2023-04-28T08:59:40.949Z,14.70
2023-04-28T09:02:09.513Z,16.40
2023-04-28T09:07:11.969Z,17.90
2023-04-28T09:09:40.839Z,18.30
2023-04-28T09:12:08.581Z,18.10
2023-04-28T09:14:37.413Z,19.90
2023-04-28T09:17:14.332Z,20.40
2023-04-28T09:19:44.759Z,20.40
2023-04-28T09:22:25.315Z,18.30
2023-04-28T09:24:55.791Z,18.20
2023-04-28T09:27:29.604Z,17.80
2023-04-28T09:29:57.080Z,17.20
2023-04-28T09:32:27.896Z,17.50
2023-04-28T09:34:59.710Z,18.30
2023-04-28T09:37:31.069Z,20.40
2023-04-28T09:40:05.537Z,20.90
2023-04-28T09:42:43.853Z,21.30
2023-04-28T09:45:15.952Z,24.10
2023-04-28T09:47:47.135Z,23.30
2023-04-28T09:50:17.859Z,24.00
2023-04-28T09:52:57.037Z,24.10
2023-04-28T09:55:25.154Z,24.50
2023-04-28T09:57:55.406Z,24.00
2023-04-28T10:00:23.869Z,24.30
2023-04-28T10:05:23.583Z,23.40
2023-04-28T10:15:17.485Z,22.00
2023-04-28T10:17:46.933Z,22.30
2023-04-28T10:20:17.378Z,22.60
2023-04-28T10:31:10.134Z,23.90
2023-04-28T10:33:39.530Z,24.20
2023-04-28T10:36:08.103Z,25.40
2023-04-28T10:38:37.269Z,25.10
2023-04-28T10:41:04.813Z,24.60
2023-04-28T10:43:40.855Z,23.80
2023-04-28T10:46:10.894Z,24.00
2023-04-28T10:48:49.141Z,21.90
2023-04-28T10:51:17.788Z,21.50
2023-04-28T10:53:46.853Z,22.90
2023-04-28T10:56:19.048Z,23.40
2023-04-28T10:58:57.422Z,23.00
2023-04-28T11:01:25.989Z,23.40
2023-04-28T11:04:04.652Z,24.40
2023-04-28T11:06:36.838Z,25.70
2023-04-28T11:09:17.969Z,25.60
2023-04-28T11:11:59.610Z,25.30
2023-04-28T11:14:36.567Z,25.50
2023-04-28T11:17:11.762Z,24.40
2023-04-28T11:19:43.172Z,24.60
2023-04-28T11:22:23.741Z,23.90
2023-04-28T11:25:03.466Z,24.00
2023-04-28T11:27:34.372Z,23.70
2023-04-28T11:30:02.942Z,23.10
2023-04-28T11:32:34.275Z,24.60
2023-04-28T11:37:32.272Z,25.10
2023-04-28T11:40:11.163Z,24.90
2023-04-28T11:42:48.676Z,25.00
2023-04-28T11:45:16.592Z,24.20
2023-04-28T11:47:44.018Z,24.20
2023-04-28T11:50:12.984Z,24.10
2023-04-28T11:52:52.382Z,24.30
2023-04-28T11:55:21.127Z,24.50
2023-04-28T11:57:48.264Z,23.20
2023-04-28T12:00:22.191Z,23.00
2023-04-28T12:02:49.952Z,23.40
2023-04-28T12:05:17.698Z,24.30
2023-04-28T12:07:45.669Z,24.60
2023-04-28T12:10:18.865Z,25.30
2023-04-28T12:12:53.085Z,24.80
2023-04-28T12:15:22.705Z,24.00
2023-04-28T12:17:51.252Z,23.10
2023-04-28T12:20:37.349Z,24.50
2023-04-28T12:23:05.710Z,25.40
2023-04-28T12:25:35.371Z,24.60
2023-04-28T12:28:08.491Z,24.30
2023-04-28T12:30:44.195Z,21.90
2023-04-28T12:33:25.863Z,21.00
2023-04-28T12:35:57.699Z,20.90
2023-04-28T12:38:25.965Z,21.80
2023-04-28T12:40:54.045Z,21.90
2023-04-28T12:43:24.238Z,21.80
2023-04-28T12:45:56.749Z,22.10
2023-04-28T12:48:25.370Z,22.80
2023-04-28T12:50:53.221Z,23.50
2023-04-28T12:53:20.505Z,23.80
2023-04-28T12:55:48.157Z,24.50
2023-04-28T12:58:15.558Z,25.10
2023-04-28T13:00:43.342Z,25.10
2023-04-28T13:03:10.805Z,25.10
2023-04-28T13:05:38.360Z,25.40
2023-04-28T13:08:05.842Z,25.60
2023-04-28T13:10:33.309Z,23.80
2023-04-28T13:13:00.598Z,22.50
2023-04-28T13:15:28.353Z,22.20
2023-04-28T13:17:55.538Z,21.20
2023-04-28T13:20:23.207Z,21.60
2023-04-28T13:22:50.512Z,22.70
2023-04-28T13:25:19.446Z,22.80
2023-04-28T13:27:47.850Z,22.40
2023-04-28T13:30:15.720Z,22.60
2023-04-28T13:32:43.113Z,24.00
2023-04-28T13:35:11.966Z,23.70
2023-04-28T13:37:42.859Z,23.10
2023-04-28T13:40:12.014Z,22.30
2023-04-28T13:42:44.450Z,22.00
2023-04-28T13:45:17.574Z,21.80
2023-04-28T13:47:45.610Z,21.40
2023-04-28T13:50:13.279Z,21.20
2023-04-28T13:52:42.563Z,20.90
2023-04-28T13:55:11.250Z,21.20
2023-04-28T13:57:38.579Z,20.50
2023-04-28T14:00:07.246Z,20.70
2023-04-28T14:02:35.009Z,20.80
2023-04-28T14:05:04.350Z,20.70
2023-04-28T14:07:31.682Z,20.40
2023-04-28T14:10:00.134Z,20.90
2023-04-28T14:12:27.423Z,21.40
2023-04-28T14:14:55.141Z,21.60
2023-04-28T14:17:22.389Z,21.40
2023-04-28T14:19:50.041Z,20.60
2023-04-28T14:22:17.463Z,20.20
2023-04-28T14:24:45.624Z,20.40
2023-04-28T14:27:13.924Z,20.40
2023-04-28T14:29:42.488Z,20.30
2023-04-28T14:32:09.799Z,20.10
2023-04-28T14:34:37.737Z,20.70
2023-04-28T14:37:05.241Z,20.70
2023-04-28T14:39:33.127Z,20.20
2023-04-28T14:42:01.021Z,20.20
2023-04-28T14:44:28.984Z,20.10
2023-04-28T14:46:57.051Z,20.40
2023-04-28T14:49:25.011Z,20.30
2023-04-28T14:51:52.638Z,20.20
2023-04-28T14:54:21.930Z,20.50
2023-04-28T14:56:50.473Z,19.80
2023-04-28T14:59:19.166Z,18.90
2023-04-28T15:01:46.663Z,18.50
2023-04-28T15:04:14.391Z,18.00
2023-04-28T15:06:41.930Z,17.90
2023-04-28T15:09:09.499Z,17.80
2023-04-28T15:11:37.085Z,17.80
2023-04-28T15:14:04.615Z,17.70
2023-04-28T15:16:31.894Z,17.40
2023-04-28T15:19:00.349Z,17.30
2023-04-28T15:21:28.658Z,16.90
2023-04-28T15:23:56.368Z,17.10
2023-04-28T15:26:23.907Z,16.90
2023-04-28T15:28:51.637Z,16.90
2023-04-28T15:31:19.102Z,16.90
2023-04-28T15:33:46.900Z,17.00
2023-04-28T15:36:14.235Z,16.70
2023-04-28T15:38:42.842Z,16.40
2023-04-28T15:41:10.215Z,16.40
2023-04-28T15:43:41.000Z,16.40
2023-04-28T15:46:11.591Z,16.10
2023-04-28T15:48:39.791Z,15.90
2023-04-28T15:51:07.656Z,15.70
2023-04-28T15:53:35.413Z,15.90
2023-04-28T15:56:04.563Z,15.50
2023-04-28T15:58:32.719Z,15.40
2023-04-28T16:01:00.458Z,15.30
2023-04-28T16:03:28.465Z,15.30
2023-04-28T16:05:56.794Z,15.10
2023-04-28T16:08:25.326Z,15.00
2023-04-28T16:10:53.164Z,15.00
2023-04-28T16:13:20.675Z,14.80
2023-04-28T16:15:49.716Z,14.90
2023-04-28T16:18:17.763Z,14.80
2023-04-28T16:20:45.172Z,14.70
2023-04-28T16:23:14.771Z,14.70
2023-04-28T16:25:42.072Z,14.70
2023-04-28T16:28:09.792Z,14.60
2023-04-28T16:30:37.161Z,14.60
2023-04-28T16:33:05.336Z,14.70
2023-04-28T16:35:32.898Z,14.50
2023-04-28T16:38:00.661Z,14.40
2023-04-28T16:40:28.890Z,14.50
2023-04-28T16:42:56.655Z,14.40
2023-04-28T16:45:24.173Z,14.40
2023-04-28T16:47:51.880Z,14.50
2023-04-28T16:50:19.378Z,14.50
2023-04-28T16:52:48.243Z,14.40
2023-04-28T16:55:15.785Z,14.40
2023-04-28T16:57:43.550Z,14.50
2023-04-28T17:00:11.639Z,14.90
2023-04-28T17:02:39.428Z,14.30
2023-04-28T17:05:07.457Z,14.30
2023-04-28T17:07:35.160Z,14.10
2023-04-28T17:10:03.819Z,14.10
2023-04-28T17:12:31.559Z,14.10
2023-04-28T17:14:59.145Z,14.00
2023-04-28T17:17:27.412Z,13.90
2023-04-28T17:19:55.822Z,13.90
2023-04-28T17:22:23.609Z,13.80
2023-04-28T17:24:51.073Z,13.70
2023-04-28T17:27:18.659Z,13.60
2023-04-28T17:29:45.969Z,13.60
2023-04-28T17:32:13.754Z,13.40
2023-04-28T17:34:41.777Z,13.30
2023-04-28T17:37:09.296Z,13.20
2023-04-28T17:39:36.606Z,13.00
2023-04-28T17:42:05.261Z,12.90
2023-04-28T17:44:32.576Z,12.90
2023-04-28T17:47:01.350Z,12.70
2023-04-28T17:49:28.853Z,12.50
2023-04-28T17:51:56.506Z,12.40
2023-04-28T17:54:23.819Z,12.30
2023-04-28T17:56:51.905Z,12.20
2023-04-28T17:59:19.248Z,12.10
2023-04-28T18:01:46.734Z,11.90
2023-04-28T18:04:14.072Z,11.80
2023-04-28T18:06:41.515Z,11.70
2023-04-28T18:09:08.716Z,11.50
2023-04-28T18:11:37.066Z,11.30
2023-04-28T18:14:04.384Z,11.30
2023-04-28T18:16:31.807Z,11.20
2023-04-28T18:18:59.525Z,11.10
2023-04-28T18:21:28.206Z,10.90
2023-04-28T18:23:55.392Z,10.80
2023-04-28T18:26:23.030Z,10.70
2023-04-28T18:28:50.643Z,10.60
2023-04-28T18:31:18.153Z,10.50
2023-04-28T18:33:45.476Z,10.50
2023-04-28T18:36:13.142Z,10.30
2023-04-28T18:38:40.342Z,10.20
2023-04-28T18:41:16.402Z,10.10
2023-04-28T18:43:44.723Z,10.00
2023-04-28T18:46:12.431Z,9.90
2023-04-28T18:48:40.473Z,9.80
2023-04-28T18:51:08.346Z,9.70
2023-04-28T18:53:36.676Z,9.70
2023-04-28T18:56:04.695Z,9.50
2023-04-28T18:58:32.303Z,9.40
2023-04-28T19:01:01.628Z,9.30
2023-04-28T19:03:30.746Z,9.20
2023-04-28T19:05:58.666Z,9.10
2023-04-28T19:08:26.586Z,9.10
2023-04-28T19:10:57.423Z,9.00
2023-04-28T19:13:25.258Z,8.80
2023-04-28T19:15:57.007Z,8.80
2023-04-28T19:18:24.586Z,8.70
2023-04-28T19:21:00.857Z,8.60
2023-04-28T19:23:29.424Z,8.60
2023-04-28T19:25:58.645Z,8.50
2023-04-28T19:28:26.665Z,8.50
2023-04-28T19:30:56.499Z,8.30
2023-04-28T19:33:27.115Z,8.40
2023-04-28T19:35:55.956Z,8.30
2023-04-28T19:38:24.317Z,6.70
2023-04-28T19:41:01.233Z,8.20
2023-04-28T19:43:28.927Z,8.10
2023-04-28T19:45:57.480Z,8.10
2023-04-28T19:48:26.355Z,8.10
2023-04-28T19:50:55.446Z,8.00
2023-04-28T19:53:24.517Z,7.90
2023-04-28T19:55:52.752Z,8.00
2023-04-28T19:58:21.006Z,7.90
2023-04-28T20:00:49.152Z,7.90
2023-04-28T20:03:17.602Z,7.90
2023-04-28T20:05:45.305Z,7.90
2023-04-28T20:08:14.000Z,7.80
2023-04-28T20:10:42.620Z,7.80
2023-04-28T20:13:10.492Z,7.80
2023-04-28T20:15:39.471Z,7.80
